createdAt,value
2022-10-07T00:00:52.244Z,15.68
2022-10-07T00:03:20.211Z,15.50
2022-10-07T00:05:46.834Z,16.23
2022-10-07T00:08:14.084Z,14.95
2022-10-07T00:10:42.079Z,17.20
2022-10-07T00:13:12.015Z,17.25
2022-10-07T00:18:05.499Z,15.30
2022-10-07T00:20:37.364Z,16.50
2022-10-07T00:23:04.073Z,19.25
2022-10-07T00:25:30.697Z,15.27
2022-10-07T00:27:58.107Z,14.30
2022-10-07T00:30:24.738Z,15.43
2022-10-07T00:32:51.354Z,14.85
2022-10-07T00:35:17.922Z,14.02
2022-10-07T00:37:44.751Z,13.95
2022-10-07T00:40:13.147Z,15.80
2022-10-07T00:42:43.401Z,17.73
2022-10-07T00:45:15.662Z,15.82
2022-10-07T00:47:46.580Z,15.20
2022-10-07T00:50:24.152Z,13.38
2022-10-07T00:52:56.561Z,13.65
2022-10-07T00:55:26.201Z,13.52
2022-10-07T00:57:57.251Z,14.27
2022-10-07T01:00:24.207Z,13.13
2022-10-07T01:02:51.733Z,14.30
2022-10-07T01:05:19.383Z,14.65
2022-10-07T01:07:48.212Z,15.50
2022-10-07T01:10:18.859Z,15.60
2022-10-07T01:13:25.225Z,15.07
2022-10-07T01:16:04.517Z,16.83
2022-10-07T01:18:42.100Z,14.35
2022-10-07T01:21:37.241Z,16.20
2022-10-07T01:24:16.273Z,19.75
2022-10-07T01:26:49.334Z,21.57
2022-10-07T01:29:22.933Z,23.88
2022-10-07T01:32:12.958Z,23.33
2022-10-07T01:37:12.510Z,24.27
2022-10-07T01:39:46.919Z,23.25
2022-10-07T01:42:14.171Z,23.17
2022-10-07T01:44:41.339Z,23.55
2022-10-07T01:47:08.192Z,22.98
2022-10-07T01:49:34.847Z,24.25
2022-10-07T01:52:10.704Z,22.85
2022-10-07T01:54:55.974Z,20.30
2022-10-07T01:57:36.222Z,20.40
2022-10-07T02:00:21.083Z,19.35
2022-10-07T02:03:15.133Z,18.33
2022-10-07T02:05:50.871Z,19.88
2022-10-07T02:08:34.411Z,19.65
2022-10-07T02:11:23.944Z,20.48
2022-10-07T02:14:14.428Z,20.02
2022-10-07T02:16:44.294Z,20.70
2022-10-07T02:19:18.383Z,20.33
2022-10-07T02:21:49.465Z,19.83
2022-10-07T02:24:18.308Z,19.00
2022-10-07T02:26:47.385Z,19.98
2022-10-07T02:29:18.016Z,22.47
2022-10-07T02:31:47.631Z,20.10
2022-10-07T02:34:20.105Z,17.63
2022-10-07T02:37:01.325Z,17.75
2022-10-07T02:39:29.047Z,16.98
2022-10-07T02:42:04.768Z,17.90
2022-10-07T02:44:35.318Z,16.83
2022-10-07T02:47:08.479Z,15.88
2022-10-07T02:49:40.394Z,17.35
2022-10-07T02:52:14.793Z,17.73
2022-10-07T02:54:47.265Z,18.90
2022-10-07T02:57:17.959Z,18.05
2022-10-07T02:59:47.344Z,20.40
2022-10-07T03:02:21.680Z,19.05
2022-10-07T03:04:48.645Z,17.70
2022-10-07T03:07:15.396Z,16.02
2022-10-07T03:09:42.342Z,17.88
2022-10-07T03:12:09.135Z,16.55
2022-10-07T03:14:35.958Z,17.35
2022-10-07T03:17:03.336Z,16.45
2022-10-07T03:19:29.981Z,19.83
2022-10-07T03:21:56.911Z,17.30
2022-10-07T03:24:23.531Z,17.05
2022-10-07T03:26:50.259Z,17.80
2022-10-07T03:29:17.336Z,18.83
2022-10-07T03:31:44.061Z,18.15
2022-10-07T03:34:10.961Z,16.80
2022-10-07T03:36:38.266Z,19.38
2022-10-07T03:39:04.887Z,19.40
2022-10-07T03:41:31.607Z,19.58
2022-10-07T03:43:59.153Z,21.73
2022-10-07T03:46:26.129Z,18.23
2022-10-07T03:48:52.795Z,20.63
2022-10-07T03:51:19.670Z,18.95
2022-10-07T03:53:46.340Z,20.27
2022-10-07T03:56:13.006Z,21.38
2022-10-07T03:58:39.604Z,19.90
2022-10-07T04:01:08.973Z,17.85
2022-10-07T04:03:35.628Z,17.13
2022-10-07T04:06:03.637Z,16.77
2022-10-07T04:08:32.785Z,18.08
2022-10-07T04:11:00.656Z,17.65
2022-10-07T04:13:27.515Z,17.48
2022-10-07T04:15:55.106Z,16.52
2022-10-07T04:18:23.211Z,14.27
2022-10-07T04:20:50.079Z,16.63
2022-10-07T04:23:17.007Z,16.90
2022-10-07T04:25:47.412Z,16.52
2022-10-07T04:28:19.961Z,13.77
2022-10-07T04:30:51.295Z,13.32
2022-10-07T04:33:19.374Z,15.18
2022-10-07T04:35:46.066Z,15.60
2022-10-07T04:38:15.572Z,19.30
2022-10-07T04:40:44.117Z,17.48
2022-10-07T04:43:20.222Z,18.63
2022-10-07T04:45:54.902Z,18.23
2022-10-07T04:48:23.635Z,17.70
2022-10-07T04:50:52.298Z,18.13
2022-10-07T04:53:20.342Z,18.83
2022-10-07T04:55:50.162Z,19.02
2022-10-07T04:58:18.635Z,19.42
2022-10-07T05:00:47.781Z,20.58
2022-10-07T05:03:16.057Z,21.45
2022-10-07T05:05:44.386Z,21.02
2022-10-07T05:08:12.464Z,22.05
2022-10-07T05:10:40.161Z,19.38
2022-10-07T05:13:09.519Z,21.08
2022-10-07T05:15:36.158Z,19.88
2022-10-07T05:18:03.303Z,20.13
2022-10-07T05:20:29.962Z,20.75
2022-10-07T05:22:56.582Z,22.77
2022-10-07T05:25:23.259Z,24.60
2022-10-07T05:27:54.089Z,24.27
2022-10-07T05:30:21.532Z,24.45
2022-10-07T05:32:48.284Z,22.58
2022-10-07T05:35:15.238Z,21.92
2022-10-07T05:37:41.986Z,22.05
2022-10-07T05:40:09.589Z,22.33
2022-10-07T05:42:36.816Z,21.55
2022-10-07T05:45:04.383Z,21.52
2022-10-07T05:47:33.307Z,20.50
2022-10-07T05:50:00.474Z,21.50
2022-10-07T05:52:27.269Z,20.50
2022-10-07T05:54:53.935Z,19.90
2022-10-07T05:57:20.559Z,19.58
2022-10-07T05:59:47.160Z,19.60
2022-10-07T06:02:16.298Z,19.17
2022-10-07T06:04:45.781Z,20.35
2022-10-07T06:07:15.887Z,19.05
2022-10-07T06:10:05.362Z,19.67
2022-10-07T06:12:50.504Z,18.67
2022-10-07T06:15:17.127Z,18.38
2022-10-07T06:17:47.341Z,19.35
2022-10-07T06:20:14.299Z,18.95
2022-10-07T06:22:42.981Z,19.20
2022-10-07T06:25:09.829Z,18.88
2022-10-07T06:27:36.482Z,18.25
2022-10-07T06:30:03.534Z,17.98
2022-10-07T06:32:31.052Z,18.40
2022-10-07T06:34:57.691Z,18.80
2022-10-07T06:37:24.452Z,17.13
2022-10-07T06:39:51.088Z,17.60
2022-10-07T06:42:17.760Z,17.23
2022-10-07T06:44:44.654Z,18.10
2022-10-07T06:47:12.025Z,16.92
2022-10-07T06:49:39.021Z,17.15
2022-10-07T06:52:05.948Z,17.45
2022-10-07T06:54:32.641Z,16.25
2022-10-07T06:56:59.252Z,16.73
2022-10-07T06:59:25.993Z,16.85
2022-10-07T07:01:52.822Z,17.58
2022-10-07T07:04:19.477Z,15.98
2022-10-07T07:06:46.774Z,15.98
2022-10-07T07:09:13.428Z,15.48
2022-10-07T07:11:45.165Z,15.05
2022-10-07T07:14:13.741Z,15.15
2022-10-07T07:16:40.881Z,14.35
2022-10-07T07:19:09.103Z,13.77
2022-10-07T07:21:38.231Z,13.77
2022-10-07T07:24:05.477Z,13.68
2022-10-07T07:26:32.627Z,13.95
2022-10-07T07:29:02.333Z,14.45
2022-10-07T07:31:31.754Z,13.05
2022-10-07T07:34:01.867Z,13.93
2022-10-07T07:36:31.249Z,12.48
2022-10-07T07:39:00.456Z,12.18
2022-10-07T07:41:30.949Z,11.88
2022-10-07T07:44:00.558Z,12.63
2022-10-07T07:46:32.196Z,11.15
2022-10-07T07:48:58.834Z,11.88
2022-10-07T07:51:25.676Z,11.70
2022-10-07T07:53:52.405Z,11.73
2022-10-07T07:56:20.254Z,11.18
2022-10-07T07:58:47.450Z,10.52
2022-10-07T08:01:18.698Z,10.45
2022-10-07T08:03:47.204Z,9.43
2022-10-07T08:06:15.881Z,9.70
2022-10-07T08:08:43.266Z,9.68
2022-10-07T08:11:12.537Z,10.05
2022-10-07T08:13:41.372Z,8.68
2022-10-07T08:16:09.608Z,8.53
2022-10-07T08:18:36.319Z,8.63
2022-10-07T08:21:05.221Z,8.38
2022-10-07T08:23:31.947Z,8.50
2022-10-07T08:26:00.338Z,7.80
2022-10-07T08:28:28.335Z,8.32
2022-10-07T08:30:55.714Z,7.68
2022-10-07T08:33:22.683Z,7.55
2022-10-07T08:35:58.644Z,7.38
2022-10-07T08:38:29.052Z,7.65
2022-10-07T08:40:55.782Z,6.63
2022-10-07T08:43:24.556Z,7.30
2022-10-07T08:45:54.870Z,6.88
2022-10-07T08:48:29.125Z,7.05
2022-10-07T08:51:02.505Z,6.00
2022-10-07T08:53:34.133Z,7.45
2022-10-07T08:56:23.811Z,7.47
2022-10-07T09:01:58.433Z,6.55
2022-10-07T09:04:53.616Z,7.15
2022-10-07T09:07:40.541Z,7.00
2022-10-07T09:10:10.296Z,7.90
2022-10-07T09:15:18.129Z,7.60
2022-10-07T09:17:54.341Z,7.15
2022-10-07T09:20:27.018Z,7.20
2022-10-07T09:22:57.574Z,7.15
2022-10-07T09:25:30.237Z,7.38
2022-10-07T09:27:57.731Z,7.45
2022-10-07T09:30:27.960Z,6.68
2022-10-07T09:32:55.641Z,6.72
2022-10-07T09:35:37.415Z,6.75
2022-10-07T09:38:09.329Z,6.60
2022-10-07T09:40:36.080Z,8.60
2022-10-07T09:43:13.848Z,5.68
2022-10-07T09:48:41.078Z,5.55
2022-10-07T09:51:19.325Z,5.35
2022-10-07T09:53:58.901Z,4.40
2022-10-07T09:56:46.208Z,5.00
2022-10-07T09:59:21.894Z,4.47
2022-10-07T10:02:21.007Z,5.20
2022-10-07T10:04:50.308Z,4.30
2022-10-07T10:07:21.337Z,4.43
2022-10-07T10:09:52.775Z,4.75
2022-10-07T10:12:21.452Z,4.68
2022-10-07T10:15:00.980Z,5.20
2022-10-07T10:17:27.702Z,4.47
2022-10-07T10:19:55.805Z,5.10
2022-10-07T10:22:29.260Z,4.15
2022-10-07T10:25:15.290Z,4.65
2022-10-07T10:28:04.799Z,6.40
2022-10-07T10:30:32.325Z,5.97
2022-10-07T10:33:09.616Z,6.72
2022-10-07T10:35:50.723Z,6.78
2022-10-07T10:38:26.381Z,9.27
2022-10-07T10:41:09.078Z,6.68
2022-10-07T10:44:17.075Z,6.47
2022-10-07T10:46:52.691Z,6.88
2022-10-07T10:49:28.318Z,6.28
2022-10-07T10:52:18.142Z,6.20
2022-10-07T10:55:03.342Z,6.55
2022-10-07T10:57:48.645Z,6.18
2022-10-07T11:00:21.716Z,13.00
2022-10-07T11:03:23.697Z,8.88
2022-10-07T11:05:52.677Z,7.75
2022-10-07T11:08:27.320Z,7.88
2022-10-07T11:11:05.494Z,6.88
2022-10-07T11:13:54.787Z,6.60
2022-10-07T11:16:38.521Z,6.20
2022-10-07T11:19:31.305Z,6.35
2022-10-07T11:22:02.188Z,6.35
2022-10-07T11:24:39.332Z,6.30
2022-10-07T11:27:17.253Z,5.90
2022-10-07T11:30:08.182Z,6.45
2022-10-07T11:32:57.315Z,6.15
2022-10-07T11:35:49.139Z,6.43
2022-10-07T11:38:22.664Z,6.80
2022-10-07T11:40:59.579Z,6.63
2022-10-07T11:43:26.115Z,6.57
2022-10-07T11:45:58.075Z,6.82
2022-10-07T11:48:59.751Z,7.05
2022-10-07T11:51:58.021Z,6.68
2022-10-07T11:54:29.373Z,6.10
2022-10-07T11:56:59.378Z,6.00
2022-10-07T11:59:35.856Z,6.72
2022-10-07T12:02:05.045Z,6.32
2022-10-07T12:04:35.280Z,6.95
2022-10-07T12:07:33.107Z,6.90
2022-10-07T12:10:02.377Z,6.50
2022-10-07T12:12:45.153Z,7.10
2022-10-07T12:15:42.385Z,6.32
2022-10-07T12:18:10.496Z,5.80
2022-10-07T12:21:00.139Z,6.38
2022-10-07T12:23:26.876Z,5.90
2022-10-07T12:26:04.210Z,5.78
2022-10-07T12:28:49.730Z,6.00
2022-10-07T12:31:16.340Z,6.00
2022-10-07T12:33:46.194Z,5.50
2022-10-07T12:36:18.925Z,5.25
2022-10-07T12:39:09.631Z,5.45
2022-10-07T12:41:40.078Z,5.22
2022-10-07T12:44:36.224Z,5.40
2022-10-07T12:47:13.865Z,5.22
2022-10-07T12:49:50.717Z,4.65
2022-10-07T12:52:45.493Z,4.97
2022-10-07T12:55:21.129Z,4.93
2022-10-07T12:57:53.813Z,4.78
2022-10-07T13:00:22.936Z,4.57
2022-10-07T13:02:58.994Z,4.13
2022-10-07T13:05:31.702Z,4.30
2022-10-07T13:08:20.016Z,3.92
2022-10-07T13:11:17.531Z,4.03
2022-10-07T13:14:03.668Z,3.90
2022-10-07T13:17:01.219Z,4.00
2022-10-07T13:20:06.631Z,3.92
2022-10-07T13:22:33.657Z,4.22
2022-10-07T13:28:04.449Z,3.90
2022-10-07T13:30:41.128Z,4.10
2022-10-07T13:33:28.342Z,3.95
2022-10-07T13:36:30.115Z,4.22
2022-10-07T13:39:23.234Z,12.18
2022-10-07T13:41:55.679Z,6.80
2022-10-07T13:44:25.758Z,24.45
2022-10-07T13:47:04.642Z,17.10
2022-10-07T13:49:38.452Z,7.22
2022-10-07T13:52:13.587Z,5.35
2022-10-07T13:54:40.185Z,11.77
2022-10-07T13:57:12.274Z,5.00
2022-10-07T13:59:40.606Z,4.10
2022-10-07T14:02:12.195Z,4.00
2022-10-07T14:04:58.711Z,4.10
2022-10-07T14:07:27.831Z,4.30
2022-10-07T14:10:00.667Z,4.50
2022-10-07T14:12:43.973Z,4.75
2022-10-07T14:15:17.158Z,4.25
2022-10-07T14:17:48.052Z,4.20
2022-10-07T14:20:34.864Z,4.85
2022-10-07T14:23:06.002Z,4.35
2022-10-07T14:25:50.508Z,6.38
2022-10-07T14:28:18.779Z,4.75
2022-10-07T14:31:25.230Z,5.03
2022-10-07T14:34:22.643Z,5.28
2022-10-07T14:37:10.458Z,4.43
2022-10-07T14:39:42.598Z,4.57
2022-10-07T14:42:32.373Z,4.70
2022-10-07T14:45:02.673Z,4.60
2022-10-07T14:47:31.485Z,4.80
2022-10-07T14:50:01.235Z,4.73
2022-10-07T14:55:18.943Z,5.13
2022-10-07T14:57:47.221Z,4.80
2022-10-07T15:00:17.611Z,4.45
2022-10-07T15:02:44.777Z,4.63
2022-10-07T15:05:13.112Z,4.50
2022-10-07T15:07:42.271Z,4.28
2022-10-07T15:10:18.316Z,4.55
2022-10-07T15:12:45.591Z,4.63
2022-10-07T15:15:14.193Z,4.78
2022-10-07T15:17:42.137Z,5.70
2022-10-07T15:20:11.379Z,5.95
2022-10-07T15:22:38.624Z,6.25
2022-10-07T15:25:06.945Z,6.63
2022-10-07T15:27:33.749Z,7.00
2022-10-07T15:30:00.537Z,5.90
2022-10-07T15:32:30.254Z,5.38
2022-10-07T15:37:27.543Z,5.70
2022-10-07T15:39:54.919Z,5.70
2022-10-07T15:42:24.524Z,6.00
2022-10-07T15:44:51.877Z,6.22
2022-10-07T15:47:18.881Z,8.80
2022-10-07T15:49:45.651Z,20.40
2022-10-07T15:52:12.349Z,14.25
2022-10-07T15:54:39.926Z,16.45
2022-10-07T15:57:08.287Z,17.40
2022-10-07T15:59:35.709Z,18.20
2022-10-07T16:02:02.639Z,17.58
2022-10-07T16:04:29.311Z,16.58
2022-10-07T16:06:55.919Z,16.48
2022-10-07T16:09:23.688Z,19.92
2022-10-07T16:11:50.843Z,21.85
2022-10-07T16:14:17.700Z,19.73
2022-10-07T16:16:44.385Z,19.55
2022-10-07T16:19:11.683Z,22.67
2022-10-07T16:21:40.846Z,22.45
2022-10-07T16:24:16.615Z,24.48
2022-10-07T16:26:44.928Z,29.75
2022-10-07T16:29:39.996Z,27.75
2022-10-07T16:32:10.533Z,24.55
2022-10-07T16:34:39.119Z,22.25
2022-10-07T16:37:06.270Z,26.25
2022-10-07T16:39:33.078Z,31.67
2022-10-07T16:42:00.002Z,26.48
2022-10-07T16:44:27.940Z,20.15
2022-10-07T16:46:57.473Z,21.00
2022-10-07T16:49:26.098Z,23.45
2022-10-07T16:51:53.169Z,24.77
2022-10-07T16:54:20.220Z,25.27
2022-10-07T16:56:49.996Z,28.02
2022-10-07T16:59:23.716Z,24.05
2022-10-07T17:01:52.768Z,24.42
2022-10-07T17:04:19.602Z,24.55
2022-10-07T17:06:46.641Z,24.20
2022-10-07T17:09:13.963Z,21.23
2022-10-07T17:11:41.252Z,19.90
2022-10-07T17:14:19.257Z,20.95
2022-10-07T17:16:51.454Z,17.02
2022-10-07T17:19:20.732Z,16.38
2022-10-07T17:21:48.878Z,15.20
2022-10-07T17:24:17.380Z,17.10
2022-10-07T17:26:45.358Z,19.50
2022-10-07T17:29:14.212Z,18.40
2022-10-07T17:31:43.432Z,16.42
2022-10-07T17:34:11.873Z,17.38
2022-10-07T17:36:39.369Z,18.55
2022-10-07T17:39:06.132Z,19.63
2022-10-07T17:41:35.497Z,22.85
2022-10-07T17:44:05.486Z,22.02
2022-10-07T17:46:37.051Z,20.55
2022-10-07T17:49:05.131Z,21.88
2022-10-07T17:51:32.908Z,20.55
2022-10-07T17:54:01.337Z,18.55
2022-10-07T17:56:29.955Z,19.35
2022-10-07T17:58:57.170Z,19.00
2022-10-07T18:01:29.902Z,17.25
2022-10-07T18:03:58.860Z,15.93
2022-10-07T18:06:27.392Z,15.57
2022-10-07T18:08:54.567Z,14.82
2022-10-07T18:11:21.284Z,13.95
2022-10-07T18:14:06.492Z,13.60
2022-10-07T18:16:34.834Z,10.85
2022-10-07T18:19:02.099Z,11.93
2022-10-07T18:21:31.070Z,12.15
2022-10-07T18:23:58.827Z,11.07
2022-10-07T18:26:25.470Z,12.23
2022-10-07T18:28:52.228Z,13.68
2022-10-07T18:31:19.780Z,13.52
2022-10-07T18:33:46.517Z,18.42
2022-10-07T18:36:16.528Z,21.35
2022-10-07T18:38:44.553Z,21.55
2022-10-07T18:41:14.315Z,20.20
2022-10-07T18:43:42.385Z,15.57
2022-10-07T18:46:14.491Z,14.93
2022-10-07T18:48:42.715Z,17.05
2022-10-07T18:51:11.513Z,20.80
2022-10-07T18:53:40.634Z,26.35
2022-10-07T18:56:10.710Z,27.13
2022-10-07T18:58:42.488Z,27.38
2022-10-07T19:01:16.338Z,32.38
2022-10-07T19:03:43.899Z,39.28
2022-10-07T19:06:12.514Z,42.00
2022-10-07T19:08:39.380Z,36.47
2022-10-07T19:11:08.084Z,36.90
2022-10-07T19:13:53.889Z,34.47
2022-10-07T19:16:49.176Z,32.30
2022-10-07T19:19:21.316Z,30.00
2022-10-07T19:21:51.491Z,30.98
2022-10-07T19:24:19.004Z,29.63
2022-10-07T19:26:49.016Z,31.15
2022-10-07T19:29:18.011Z,30.00
2022-10-07T19:31:49.795Z,29.33
2022-10-07T19:34:21.793Z,30.10
2022-10-07T19:36:48.973Z,28.88
2022-10-07T19:39:18.800Z,30.23
2022-10-07T19:44:13.532Z,28.13
2022-10-07T19:46:40.197Z,30.35
2022-10-07T19:49:07.743Z,28.50
2022-10-07T19:51:35.230Z,28.95
2022-10-07T19:54:04.134Z,27.35
2022-10-07T19:56:34.249Z,27.40
2022-10-07T19:59:05.471Z,26.85
2022-10-07T20:01:35.048Z,26.77
2022-10-07T20:04:11.165Z,26.17
2022-10-07T20:06:38.313Z,25.88
2022-10-07T20:09:07.739Z,27.60
2022-10-07T20:11:34.631Z,27.70
2022-10-07T20:14:03.482Z,29.45
2022-10-07T20:16:31.449Z,29.52
2022-10-07T20:19:01.740Z,28.23
2022-10-07T20:21:28.887Z,29.90
2022-10-07T20:23:56.687Z,25.58
2022-10-07T20:26:25.914Z,27.88
2022-10-07T20:28:55.363Z,26.88
2022-10-07T20:31:25.362Z,28.00
2022-10-07T20:33:55.467Z,27.98
2022-10-07T20:36:27.404Z,25.05
2022-10-07T20:39:17.598Z,26.15
2022-10-07T20:42:02.984Z,28.27
2022-10-07T20:44:29.733Z,27.30
2022-10-07T20:46:57.246Z,28.63
2022-10-07T20:49:28.485Z,27.60
2022-10-07T20:51:57.901Z,27.75
2022-10-07T20:54:25.916Z,28.42
2022-10-07T20:56:53.385Z,31.60
2022-10-07T20:59:20.453Z,30.95
2022-10-07T21:01:47.286Z,27.92
2022-10-07T21:04:15.641Z,27.55
2022-10-07T21:06:43.224Z,27.17
2022-10-07T21:09:10.804Z,26.98
2022-10-07T21:11:38.136Z,25.25
2022-10-07T21:14:05.078Z,28.45
2022-10-07T21:16:32.711Z,27.27
2022-10-07T21:18:59.531Z,27.42
2022-10-07T21:21:26.388Z,25.75
2022-10-07T21:23:53.120Z,25.67
2022-10-07T21:26:21.299Z,26.95
2022-10-07T21:28:48.763Z,26.88
2022-10-07T21:31:18.005Z,27.70
2022-10-07T21:33:48.000Z,26.70
2022-10-07T21:38:54.620Z,24.85
2022-10-07T21:41:24.249Z,27.67
2022-10-07T21:43:58.346Z,28.55
2022-10-07T21:46:26.885Z,29.25
2022-10-07T21:48:55.175Z,36.60
2022-10-07T21:51:22.746Z,34.20
2022-10-07T21:53:51.297Z,36.20
2022-10-07T21:56:18.088Z,36.00
2022-10-07T21:59:11.448Z,40.67
2022-10-07T22:01:38.823Z,41.03
2022-10-07T22:04:06.167Z,38.80
2022-10-07T22:06:51.344Z,35.92
2022-10-07T22:09:21.085Z,36.70
2022-10-07T22:11:54.078Z,36.13
2022-10-07T22:14:20.862Z,35.55
2022-10-07T22:16:49.632Z,34.53
2022-10-07T22:19:17.699Z,35.05
2022-10-07T22:21:45.854Z,33.08
2022-10-07T22:24:13.133Z,34.53
2022-10-07T22:26:46.514Z,34.67
2022-10-07T22:29:16.134Z,36.53
2022-10-07T22:31:42.973Z,38.08
2022-10-07T22:34:29.613Z,33.30
2022-10-07T22:36:58.009Z,33.97
2022-10-07T22:39:25.924Z,35.05
2022-10-07T22:41:52.895Z,33.25
2022-10-07T22:44:19.679Z,32.05
2022-10-07T22:46:46.346Z,33.20
2022-10-07T22:49:13.316Z,31.38
2022-10-07T22:51:39.907Z,29.63
2022-10-07T22:54:08.020Z,28.33
2022-10-07T22:56:34.653Z,29.27
2022-10-07T22:59:01.316Z,29.58
2022-10-07T23:01:29.559Z,26.48
2022-10-07T23:03:58.870Z,26.67
2022-10-07T23:06:25.625Z,27.98
2022-10-07T23:08:52.377Z,28.42
2022-10-07T23:11:22.267Z,26.73
2022-10-07T23:16:19.100Z,23.35
2022-10-07T23:18:48.194Z,23.75
2022-10-07T23:21:23.671Z,23.87
2022-10-07T23:23:52.443Z,25.58
2022-10-07T23:26:24.551Z,24.33
2022-10-07T23:28:52.425Z,23.25
2022-10-07T23:31:21.721Z,21.73
2022-10-07T23:33:51.413Z,22.90
2022-10-07T23:36:22.300Z,22.52
2022-10-07T23:38:50.420Z,23.30
2022-10-07T23:41:20.141Z,21.80
2022-10-07T23:43:51.800Z,21.40
2022-10-07T23:46:20.089Z,20.92
2022-10-07T23:48:47.237Z,22.42
2022-10-07T23:51:16.611Z,22.98
2022-10-07T23:53:43.238Z,20.30
2022-10-07T23:56:09.996Z,21.83
2022-10-07T23:58:37.052Z,20.95
